Time;durP1;ratioP1;P1;durP2;ratioP2;P2;SDS_P1;SDS_P2;PMS_P1;PMS_P2;Temp;Humidity;BMP_temperature;BMP_pressure;BME280_temperature;BME280_humidity;BME280_pressure;Samples;Min_cycle;Max_cycle;Signal;HPM_P1;HPM_P2
2021/01/24 00:01:45;;;;;;;4.00;3.80;;;5.90;51.60;;;;;;5013981;28;20680;-68
2021/01/24 00:04:11;;;;;;;4.47;4.17;;;5.90;50.90;;;;;;5013901;28;20204;-68
2021/01/24 00:06:36;;;;;;;4.30;4.00;;;6.10;49.70;;;;;;5013848;28;20201;-68
2021/01/24 00:09:02;;;;;;;3.70;3.50;;;5.80;50.60;;;;;;5013593;28;20224;-68
2021/01/24 00:11:28;;;;;;;3.80;3.60;;;5.70;51.00;;;;;;5013796;28;20183;-68
2021/01/24 00:13:53;;;;;;;4.17;3.30;;;5.90;50.50;;;;;;5013680;28;20503;-68
2021/01/24 00:16:19;;;;;;;3.40;2.90;;;5.80;51.70;;;;;;5013683;28;20195;-68
2021/01/24 00:18:44;;;;;;;3.30;3.00;;;6.00;50.30;;;;;;5013324;28;20182;-68
2021/01/24 00:21:10;;;;;;;2.80;2.60;;;5.80;51.00;;;;;;5013449;28;20205;-69
2021/01/24 00:23:35;;;;;;;2.60;2.50;;;5.80;50.30;;;;;;5013437;28;20195;-68
2021/01/24 00:26:01;;;;;;;2.40;2.30;;;5.80;51.80;;;;;;5013315;28;20192;-68
2021/01/24 00:28:26;;;;;;;2.90;2.70;;;5.90;51.00;;;;;;5013236;28;20259;-68
2021/01/24 00:30:52;;;;;;;2.70;2.50;;;6.00;50.50;;;;;;5013358;28;20667;-68
2021/01/24 00:33:18;;;;;;;2.37;2.20;;;6.00;49.10;;;;;;5013110;28;20191;-68
2021/01/24 00:35:43;;;;;;;2.70;2.60;;;6.10;49.20;;;;;;5013120;28;20197;-68
2021/01/24 00:38:09;;;;;;;2.53;2.40;;;6.20;48.80;;;;;;5013028;28;20495;-68
2021/01/24 00:40:35;;;;;;;2.20;2.10;;;6.10;49.10;;;;;;5012939;28;20205;-68
2021/01/24 00:43:00;;;;;;;2.30;2.20;;;6.10;49.10;;;;;;5013135;28;20416;-68
2021/01/24 00:45:26;;;;;;;2.37;2.27;;;5.90;49.40;;;;;;5012983;28;20165;-68
2021/01/24 00:47:51;;;;;;;2.93;2.73;;;5.90;50.10;;;;;;5012898;28;20184;-68
2021/01/24 00:50:17;;;;;;;2.20;2.07;;;5.70;50.50;;;;;;5013003;28;20212;-68
2021/01/24 00:52:43;;;;;;;3.37;3.20;;;5.80;50.20;;;;;;5013069;28;20188;-68
2021/01/24 00:55:08;;;;;;;2.30;2.20;;;5.40;51.00;;;;;;5012896;28;20166;-68
2021/01/24 00:57:34;;;;;;;2.50;2.40;;;5.60;50.90;;;;;;5012589;28;20201;-68
2021/01/24 00:59:59;;;;;;;2.13;2.03;;;5.50;51.10;;;;;;5012620;28;20201;-68
2021/01/24 01:02:25;;;;;;;2.30;2.20;;;5.50;50.80;;;;;;5012724;28;20671;-69
2021/01/24 01:04:50;;;;;;;2.40;2.30;;;5.70;50.60;;;;;;5012631;28;20174;-69
2021/01/24 01:07:16;;;;;;;2.80;2.70;;;5.60;51.00;;;;;;5012433;28;20575;-68
2021/01/24 01:09:41;;;;;;;2.60;2.50;;;5.40;51.30;;;;;;5012585;28;20649;-68
2021/01/24 01:12:07;;;;;;;2.80;2.60;;;5.30;51.20;;;;;;5012638;28;20667;-69
2021/01/24 01:14:33;;;;;;;2.50;2.40;;;5.30;51.20;;;;;;5012472;28;20170;-69
2021/01/24 01:16:58;;;;;;;2.17;2.07;;;5.50;51.70;;;;;;5012349;28;20200;-68
2021/01/24 01:19:24;;;;;;;2.47;2.30;;;5.60;49.70;;;;;;5012287;28;20188;-68
2021/01/24 01:21:49;;;;;;;2.07;2.00;;;5.70;49.30;;;;;;5012406;28;20288;-68
2021/01/24 01:24:15;;;;;;;2.37;2.27;;;5.50;50.40;;;;;;5012376;28;20165;-68
2021/01/24 01:26:42;;;;;;;1.97;1.87;;;5.40;50.50;;;;;;5012347;28;20202;-68
2021/01/24 01:29:07;;;;;;;2.20;2.07;;;5.50;50.70;;;;;;5012121;28;20693;-68
2021/01/24 01:31:32;;;;;;;2.13;2.03;;;5.30;50.70;;;;;;5012259;28;20416;-68
2021/01/24 01:33:58;;;;;;;1.80;1.70;;;5.40;50.60;;;;;;5012217;28;20169;-68
2021/01/24 01:36:24;;;;;;;2.27;2.17;;;5.70;50.80;;;;;;5012157;28;20280;-68
2021/01/24 01:38:50;;;;;;;2.33;2.23;;;5.70;49.60;;;;;;5012040;28;20185;-68
2021/01/24 01:41:15;;;;;;;2.70;2.50;;;5.90;49.00;;;;;;5011911;28;20468;-68
2021/01/24 01:43:41;;;;;;;3.17;2.87;;;5.40;49.70;;;;;;5012044;28;20174;-68
2021/01/24 01:46:07;;;;;;;3.13;2.93;;;5.40;50.20;;;;;;5011774;28;20236;-68
2021/01/24 01:48:33;;;;;;;2.10;2.00;;;5.20;51.40;;;;;;5011749;28;20184;-68
2021/01/24 01:50:59;;;;;;;2.30;2.20;;;5.30;51.70;;;;;;5011788;28;20314;-68
2021/01/24 01:53:25;;;;;;;2.20;2.10;;;5.30;50.90;;;;;;5011872;28;20474;-68
2021/01/24 01:55:51;;;;;;;3.37;3.17;;;5.10;50.50;;;;;;5011694;28;20428;-68
2021/01/24 01:58:17;;;;;;;2.93;2.73;;;5.20;51.80;;;;;;5011622;28;20415;-68
2021/01/24 02:00:42;;;;;;;2.80;2.60;;;5.30;51.40;;;;;;5011604;28;20452;-68
2021/01/24 02:03:27;;;;;;;2.97;2.87;;;5.30;52.20;;;;;;5011776;28;20192;-68
2021/01/24 02:06:14;;;;;;;2.83;2.63;;;5.50;50.60;;;;;;5011552;28;20206;-68
2021/01/24 02:09:07;;;;;;;2.20;2.10;;;5.60;50.40;;;;;;5011480;28;20400;-68
2021/01/24 02:11:39;;;;;;;2.60;2.50;;;5.60;50.20;;;;;;5011135;28;20423;-69
2021/01/24 02:14:27;;;;;;;2.27;2.17;;;5.50;51.10;;;;;;5011502;28;20522;-68
2021/01/24 02:16:55;;;;;;;1.77;1.67;;;5.60;51.10;;;;;;5011421;28;20518;-69
2021/01/24 02:19:26;;;;;;;1.93;1.77;;;5.40;49.50;;;;;;5011108;28;21077;-68
2021/01/24 02:21:54;;;;;;;1.57;1.57;;;5.50;50.00;;;;;;5011340;28;20499;-68
2021/01/24 02:24:22;;;;;;;1.70;1.60;;;5.70;48.80;;;;;;5011536;28;20397;-68
2021/01/24 02:27:05;;;;;;;1.20;1.20;;;5.60;48.20;;;;;;5011259;28;20432;-68
2021/01/24 02:30:18;;;;;;;4.23;1.47;;;5.60;47.70;;;;;;5011412;28;20417;-68
2021/01/24 02:32:46;;;;;;;1.47;1.40;;;5.60;46.60;;;;;;5011284;28;20408;-68
2021/01/24 02:35:13;;;;;;;1.03;1.03;;;5.30;46.60;;;;;;5011190;28;20811;-68
2021/01/24 02:37:40;;;;;;;0.90;0.90;;;5.40;46.50;;;;;;5011036;28;20408;-68
2021/01/24 02:40:08;;;;;;;0.97;0.97;;;5.30;46.80;;;;;;5011039;28;20468;-68
2021/01/24 02:42:35;;;;;;;0.90;0.90;;;5.50;46.00;;;;;;5011199;28;20412;-68
2021/01/24 02:45:02;;;;;;;1.23;1.23;;;5.60;45.40;;;;;;5011052;28;20440;-68
2021/01/24 02:47:29;;;;;;;0.90;0.90;;;5.30;45.90;;;;;;5010721;28;20934;-69
2021/01/24 02:49:56;;;;;;;0.90;0.90;;;5.30;45.70;;;;;;5011400;28;21083;-68
2021/01/24 02:52:23;;;;;;;1.13;1.13;;;5.30;45.30;;;;;;5011121;28;20412;-68
2021/01/24 02:54:49;;;;;;;1.50;1.40;;;5.40;45.50;;;;;;5011014;28;20404;-69
2021/01/24 02:57:15;;;;;;;0.93;0.93;;;5.30;45.60;;;;;;5021290;28;20432;-68
2021/01/24 02:59:41;;;;;;;1.07;1.07;;;5.30;45.20;;;;;;5030585;28;20411;-68
2021/01/24 03:02:06;;;;;;;1.50;1.10;;;5.30;45.20;;;;;;5030600;28;21016;-69
2021/01/24 03:04:32;;;;;;;1.20;1.20;;;5.40;45.10;;;;;;5030714;28;20550;-69
2021/01/24 03:06:57;;;;;;;1.20;1.20;;;5.50;44.80;;;;;;5030604;28;20196;-68
2021/01/24 03:09:23;;;;;;;1.10;1.10;;;5.50;43.80;;;;;;5029440;28;20165;-68
2021/01/24 03:11:51;;;;;;;1.40;1.30;;;5.30;42.60;;;;;;5030578;28;20183;-68
2021/01/24 03:14:24;;;;;;;1.50;1.50;;;5.30;42.60;;;;;;5030701;28;20165;-68
2021/01/24 03:16:52;;;;;;;1.77;1.67;;;5.20;41.90;;;;;;5030522;28;20463;-69
2021/01/24 03:19:21;;;;;;;1.60;1.50;;;5.30;43.00;;;;;;5030430;28;20824;-69
2021/01/24 03:21:49;;;;;;;1.70;1.60;;;5.40;41.40;;;;;;5030389;28;20538;-68
2021/01/24 03:24:17;;;;;;;2.20;2.10;;;5.30;41.70;;;;;;5034171;28;20411;-68
2021/01/24 03:26:44;;;;;;;2.03;1.93;;;5.20;41.60;;;;;;5034206;28;20438;-68
2021/01/24 03:29:10;;;;;;;1.83;1.73;;;5.20;41.70;;;;;;5034138;28;20914;-68
2021/01/24 03:31:38;;;;;;;1.87;1.77;;;5.40;42.00;;;;;;5034068;28;20411;-69
2021/01/24 03:34:13;;;;;;;2.10;2.00;;;5.40;42.20;;;;;;5034267;28;20520;-69
2021/01/24 03:36:38;;;;;;;1.90;1.80;;;5.30;42.00;;;;;;5033987;28;20521;-69
2021/01/24 03:39:04;;;;;;;2.10;2.00;;;5.50;42.80;;;;;;5033865;28;20438;-69
2021/01/24 03:41:29;;;;;;;2.30;2.20;;;5.30;41.90;;;;;;5033913;28;20204;-68
2021/01/24 03:43:55;;;;;;;2.00;1.90;;;5.20;41.20;;;;;;5034058;28;20192;-68
2021/01/24 03:46:20;;;;;;;2.10;2.00;;;5.20;41.70;;;;;;5033829;28;20245;-68
2021/01/24 03:48:46;;;;;;;2.30;2.20;;;5.30;41.10;;;;;;5033782;28;20677;-68
2021/01/24 03:51:11;;;;;;;2.37;2.27;;;5.30;42.10;;;;;;5033857;28;20176;-69
2021/01/24 03:53:37;;;;;;;2.73;2.63;;;5.30;40.50;;;;;;5033901;28;20165;-68
2021/01/24 03:56:02;;;;;;;2.40;2.20;;;5.10;41.00;;;;;;5033620;28;20208;-69
2021/01/24 03:58:28;;;;;;;2.83;2.73;;;4.90;41.10;;;;;;5033589;28;20315;-68
2021/01/24 04:00:54;;;;;;;2.73;2.53;;;5.00;41.60;;;;;;5033543;28;20227;-69
2021/01/24 04:03:19;;;;;;;2.40;2.23;;;4.90;40.00;;;;;;5033690;28;20223;-69
2021/01/24 04:05:45;;;;;;;3.00;2.80;;;5.10;39.00;;;;;;5033572;28;20192;-68
2021/01/24 04:08:10;;;;;;;3.27;2.97;;;5.00;39.50;;;;;;5033468;28;20175;-68
2021/01/24 04:10:36;;;;;;;3.30;3.10;;;4.90;39.30;;;;;;5033704;28;20185;-69
2021/01/24 04:13:01;;;;;;;2.80;2.60;;;4.90;39.50;;;;;;5033593;28;20180;-69
2021/01/24 04:15:27;;;;;;;3.00;2.80;;;4.80;38.30;;;;;;5033487;28;20200;-69
2021/01/24 04:17:52;;;;;;;3.40;3.20;;;4.80;38.30;;;;;;5033229;28;20177;-68
2021/01/24 04:20:18;;;;;;;3.63;3.33;;;4.90;39.00;;;;;;5033267;28;20201;-69
2021/01/24 04:22:43;;;;;;;3.30;3.00;;;4.90;40.00;;;;;;5033326;28;20639;-69
2021/01/24 04:25:11;;;;;;;3.33;3.13;;;4.90;40.70;;;;;;5033320;28;20179;-69
2021/01/24 04:27:37;;;;;;;3.07;2.90;;;4.90;40.90;;;;;;5033066;28;20278;-68
2021/01/24 04:30:03;;;;;;;3.00;2.80;;;4.90;41.30;;;;;;5033152;28;20502;-69
2021/01/24 04:32:28;;;;;;;3.33;3.03;;;4.70;40.10;;;;;;5033098;28;20194;-69
2021/01/24 04:34:54;;;;;;;3.93;2.70;;;4.80;40.80;;;;;;5032753;28;20502;-69
2021/01/24 04:37:19;;;;;;;2.93;2.73;;;4.80;39.50;;;;;;5032781;28;20253;-69
2021/01/24 04:39:45;;;;;;;2.90;2.67;;;4.80;40.00;;;;;;5032872;28;20189;-69
2021/01/24 04:42:10;;;;;;;3.50;3.10;;;4.80;38.50;;;;;;5032877;28;20177;-69
2021/01/24 04:44:36;;;;;;;2.90;2.70;;;4.80;38.30;;;;;;5032898;28;20169;-68
2021/01/24 04:47:02;;;;;;;2.57;2.37;;;4.80;38.30;;;;;;5032608;28;20196;-68
2021/01/24 04:49:29;;;;;;;2.93;2.73;;;4.80;37.60;;;;;;5032644;28;21073;-68
2021/01/24 04:51:54;;;;;;;2.60;2.47;;;4.80;37.90;;;;;;5032572;28;20419;-68
2021/01/24 04:54:20;;;;;;;2.27;2.17;;;4.90;38.40;;;;;;5032720;28;20773;-69
2021/01/24 04:56:46;;;;;;;3.33;3.03;;;5.10;36.50;;;;;;5032546;28;20441;-68
2021/01/24 04:59:11;;;;;;;2.83;2.60;;;4.90;35.40;;;;;;5032423;28;20422;-69
2021/01/24 05:01:39;;;;;;;3.00;2.80;;;4.90;33.40;;;;;;5032541;28;20200;-69
2021/01/24 05:04:06;;;;;;;2.33;2.13;;;5.00;35.50;;;;;;5032415;28;20164;-69
2021/01/24 05:06:31;;;;;;;2.57;2.37;;;4.90;33.60;;;;;;5032464;28;20423;-69
2021/01/24 05:09:00;;;;;;;2.63;2.43;;;4.70;33.30;;;;;;5032197;28;20414;-69
2021/01/24 05:11:26;;;;;;;2.73;2.63;;;4.70;34.40;;;;;;5032474;28;20177;-68
2021/01/24 05:13:52;;;;;;;4.80;2.30;;;4.80;32.70;;;;;;5032254;28;20422;-69
2021/01/24 05:16:21;;;;;;;2.37;2.17;;;4.80;32.00;;;;;;5032239;28;20435;-68
2021/01/24 05:18:55;;;;;;;3.17;2.87;;;4.60;33.10;;;;;;5032167;28;20416;-68
2021/01/24 05:21:21;;;;;;;3.10;2.90;;;4.80;34.50;;;;;;5032127;28;20985;-69
2021/01/24 05:23:47;;;;;;;2.70;2.60;;;5.00;32.30;;;;;;5032151;28;20416;-69
2021/01/24 05:26:13;;;;;;;2.57;2.40;;;5.00;32.60;;;;;;5032076;28;20200;-69
2021/01/24 05:28:56;;;;;;;2.73;2.53;;;5.10;32.90;;;;;;5031761;28;20435;-69
2021/01/24 05:31:22;;;;;;;3.10;2.90;;;4.90;35.60;;;;;;5031985;28;20169;-69
2021/01/24 05:33:48;;;;;;;2.93;2.73;;;4.90;36.00;;;;;;5031941;28;20414;-68
2021/01/24 05:36:13;;;;;;;3.20;2.80;;;5.10;35.90;;;;;;5032003;28;20576;-69
2021/01/24 05:38:39;;;;;;;2.63;2.43;;;5.00;34.60;;;;;;5031710;28;20447;-69
2021/01/24 05:41:11;;;;;;;2.90;2.70;;;5.00;35.40;;;;;;5031732;28;20209;-69
2021/01/24 05:43:43;;;;;;;2.90;2.70;;;5.00;34.80;;;;;;5031760;28;20164;-69
2021/01/24 05:46:10;;;;;;;3.60;3.30;;;4.90;35.20;;;;;;5031152;28;20869;-69
2021/01/24 05:48:37;;;;;;;3.00;2.80;;;5.00;35.50;;;;;;5031623;28;20454;-69
2021/01/24 05:51:07;;;;;;;3.37;3.07;;;5.00;35.00;;;;;;5031799;28;20407;-69
2021/01/24 05:53:43;;;;;;;2.43;2.23;;;5.00;35.20;;;;;;5031637;28;20418;-69
2021/01/24 05:56:09;;;;;;;3.00;2.80;;;5.10;33.80;;;;;;5031543;28;20960;-68
2021/01/24 05:58:35;;;;;;;3.53;3.27;;;5.20;33.00;;;;;;5031444;28;20478;-69
2021/01/24 06:01:01;;;;;;;3.00;2.80;;;5.00;33.50;;;;;;5031504;28;20465;-69
2021/01/24 06:03:27;;;;;;;3.37;3.17;;;5.00;34.10;;;;;;5031594;28;20196;-68
2021/01/24 06:05:52;;;;;;;2.90;2.80;;;5.10;32.20;;;;;;5031688;28;20197;-68
2021/01/24 06:08:18;;;;;;;3.57;3.33;;;4.80;32.20;;;;;;5031364;28;20172;-69
2021/01/24 06:10:43;;;;;;;4.00;3.70;;;4.90;33.20;;;;;;5031444;28;20177;-69
2021/01/24 06:13:14;;;;;;;3.57;3.20;;;4.60;33.50;;;;;;5031199;28;20176;-68
2021/01/24 06:15:42;;;;;;;3.63;3.33;;;4.60;34.20;;;;;;5026947;28;20196;-68
2021/01/24 06:18:15;;;;;;;4.00;3.70;;;4.50;34.80;;;;;;5030459;28;20407;-69
2021/01/24 06:20:46;;;;;;;3.60;3.30;;;4.40;34.90;;;;;;5030772;28;20455;-68
2021/01/24 06:23:30;;;;;;;3.27;2.97;;;4.40;35.50;;;;;;5030673;28;20414;-68
2021/01/24 06:26:09;;;;;;;3.57;3.30;;;4.60;35.70;;;;;;5030470;28;20431;-68
2021/01/24 06:28:39;;;;;;;4.20;3.87;;;4.70;35.50;;;;;;5030591;28;20427;-68
2021/01/24 06:31:10;;;;;;;3.20;3.00;;;4.50;36.00;;;;;;5030841;28;20472;-69
2021/01/24 06:33:38;;;;;;;4.00;3.37;;;4.30;36.70;;;;;;5030446;28;20928;-68
2021/01/24 06:36:04;;;;;;;3.73;3.43;;;4.40;36.80;;;;;;5030029;28;20439;-68
2021/01/24 06:38:31;;;;;;;4.40;4.10;;;4.50;37.10;;;;;;5029046;28;20437;-68
2021/01/24 06:40:58;;;;;;;4.33;3.93;;;4.50;37.60;;;;;;5030005;28;20470;-68
2021/01/24 06:43:38;;;;;;;6.63;3.60;;;4.60;36.90;;;;;;5030446;28;20513;-68
2021/01/24 06:46:05;;;;;;;3.20;2.90;;;4.90;36.40;;;;;;5029388;28;20526;-68
2021/01/24 06:48:48;;;;;;;3.57;3.13;;;4.90;36.00;;;;;;5030184;28;20415;-69
2021/01/24 06:51:33;;;;;;;3.50;3.20;;;4.80;35.10;;;;;;5030186;28;20411;-69
2021/01/24 06:54:02;;;;;;;3.87;3.57;;;4.50;35.10;;;;;;5030620;28;20771;-69
2021/01/24 06:56:47;;;;;;;3.20;2.90;;;4.60;35.20;;;;;;5030828;28;20929;-69
2021/01/24 06:59:14;;;;;;;3.20;2.90;;;4.70;34.60;;;;;;5034268;28;20446;-68
2021/01/24 07:01:43;;;;;;;4.83;3.07;;;4.60;34.00;;;;;;5033937;28;20467;-67
2021/01/24 07:04:21;;;;;;;3.70;3.30;;;4.70;33.50;;;;;;5034656;28;20881;-68
2021/01/24 07:07:08;;;;;;;3.53;3.33;;;4.80;33.30;;;;;;5033962;28;20431;-69
2021/01/24 07:09:43;;;;;;;3.67;2.80;;;5.00;32.60;;;;;;5034500;28;20414;-69
2021/01/24 07:12:09;;;;;;;3.50;3.20;;;4.90;32.40;;;;;;5034298;28;20414;-68
2021/01/24 07:14:35;;;;;;;2.60;2.40;;;4.40;33.00;;;;;;5033809;28;20416;-69
2021/01/24 07:17:07;;;;;;;4.00;2.80;;;4.50;33.10;;;;;;5034136;28;20435;-69
2021/01/24 07:19:39;;;;;;;3.13;2.83;;;4.40;33.00;;;;;;5034176;28;20223;-68
2021/01/24 07:22:05;;;;;;;4.53;3.00;;;4.40;33.60;;;;;;5033698;28;20488;-68
2021/01/24 07:24:31;;;;;;;3.30;3.00;;;4.40;35.00;;;;;;5034053;28;20498;-68
2021/01/24 07:26:57;;;;;;;3.40;3.20;;;4.40;34.30;;;;;;5032780;28;20522;-68
2021/01/24 07:29:23;;;;;;;3.40;3.13;;;5.10;44.30;;;;;;5032095;28;20169;-69
2021/01/24 07:31:50;;;;;;;5.70;2.80;;;7.10;48.20;;;;;;5032303;28;20420;-69
2021/01/24 07:34:22;;;;;;;2.70;2.50;;;8.20;54.00;;;;;;5032202;28;20414;-69
2021/01/24 07:36:52;;;;;;;4.27;2.93;;;8.80;39.40;;;;;;5031840;28;20434;-69
2021/01/24 07:39:21;;;;;;;3.27;2.97;;;9.20;30.70;;;;;;5031842;28;20422;-68
2021/01/24 07:41:47;;;;;;;6.97;2.90;;;7.60;28.20;;;;;;5031757;28;20524;-68
2021/01/24 07:44:14;;;;;;;3.53;3.17;;;6.50;30.00;;;;;;5033339;28;20490;-67
2021/01/24 07:46:40;;;;;;;2.93;2.70;;;6.00;31.50;;;;;;5033715;28;20760;-68
2021/01/24 07:49:05;;;;;;;3.40;3.20;;;5.60;31.50;;;;;;5033771;28;20419;-68
2021/01/24 07:51:33;;;;;;;4.23;3.40;;;5.30;32.00;;;;;;5033947;28;20411;-68
2021/01/24 07:53:58;;;;;;;3.37;3.17;;;5.20;31.90;;;;;;5033814;28;20180;-67
2021/01/24 07:56:24;;;;;;;3.50;3.30;;;5.00;33.10;;;;;;5033730;28;20437;-68
2021/01/24 07:58:50;;;;;;;3.40;3.10;;;5.00;32.50;;;;;;5029973;28;20180;-68
2021/01/24 08:01:15;;;;;;;4.70;3.10;;;5.00;32.40;;;;;;5033644;28;20232;-67
2021/01/24 08:03:44;;;;;;;3.37;3.17;;;5.00;31.30;;;;;;5033746;28;20238;-67
2021/01/24 08:06:11;;;;;;;2.90;2.80;;;5.10;31.10;;;;;;5033711;28;20189;-68
2021/01/24 08:08:38;;;;;;;2.97;2.60;;;5.00;32.20;;;;;;5032709;28;20400;-68
2021/01/24 08:11:04;;;;;;;2.87;2.67;;;5.10;32.10;;;;;;5032949;28;20434;-68
2021/01/24 08:13:30;;;;;;;3.07;2.87;;;5.00;32.10;;;;;;5033149;28;20411;-68
2021/01/24 08:15:58;;;;;;;3.10;2.83;;;5.20;31.60;;;;;;5030974;28;20949;-68
2021/01/24 08:18:26;;;;;;;3.17;2.90;;;5.10;30.50;;;;;;5033174;28;20415;-68
2021/01/24 08:20:51;;;;;;;3.13;2.40;;;5.10;30.50;;;;;;5033296;28;20462;-67
2021/01/24 08:23:17;;;;;;;3.20;3.00;;;5.00;31.90;;;;;;5033331;28;20415;-68
2021/01/24 08:25:43;;;;;;;2.70;2.50;;;5.00;31.40;;;;;;5032995;28;20189;-68
2021/01/24 08:28:10;;;;;;;2.40;2.30;;;5.10;32.00;;;;;;5022676;28;20243;-68
2021/01/24 08:30:38;;;;;;;2.97;2.80;;;5.00;31.10;;;;;;5017219;28;20538;-68
2021/01/24 08:33:06;;;;;;;2.83;2.63;;;4.80;31.70;;;;;;5026764;28;20778;-67
2021/01/24 08:35:34;;;;;;;3.07;2.87;;;4.80;32.70;;;;;;5026135;28;20415;-67
2021/01/24 08:38:02;;;;;;;4.10;2.90;;;4.90;32.50;;;;;;5027800;28;20412;-69
2021/01/24 08:40:35;;;;;;;3.63;3.33;;;4.90;32.60;;;;;;5023459;28;20455;-67
2021/01/24 08:43:02;;;;;;;2.23;2.13;;;4.60;33.50;;;;;;5024394;28;20446;-67
2021/01/24 08:45:28;;;;;;;2.63;2.43;;;4.70;33.20;;;;;;5025259;28;20411;-67
2021/01/24 08:48:03;;;;;;;3.23;3.03;;;4.80;33.10;;;;;;5025669;28;20499;-67
2021/01/24 08:50:34;;;;;;;2.63;2.40;;;4.90;33.40;;;;;;5027338;28;20259;-67
2021/01/24 08:53:01;;;;;;;2.57;2.37;;;5.20;31.50;;;;;;5013210;28;20428;-67
2021/01/24 08:55:27;;;;;;;2.43;2.23;;;5.20;32.80;;;;;;5032003;28;20419;-67
2021/01/24 08:57:53;;;;;;;3.90;2.30;;;5.10;32.40;;;;;;5032173;28;20423;-67
2021/01/24 09:00:20;;;;;;;2.80;2.60;;;5.10;31.70;;;;;;5032377;28;20453;-67
2021/01/24 09:02:46;;;;;;;3.00;2.80;;;5.20;31.80;;;;;;5032222;28;20457;-67
2021/01/24 09:05:35;;;;;;;2.60;2.40;;;5.40;30.90;;;;;;5032344;28;20410;-69
2021/01/24 09:08:01;;;;;;;3.63;3.33;;;5.20;31.00;;;;;;5032481;28;20420;-67
2021/01/24 09:10:31;;;;;;;2.80;2.60;;;5.30;32.30;;;;;;5032589;28;20420;-67
2021/01/24 09:13:05;;;;;;;2.67;2.57;;;5.30;31.90;;;;;;5032622;28;20632;-67
2021/01/24 09:15:33;;;;;;;2.40;2.30;;;5.20;32.50;;;;;;5032424;28;20528;-67
2021/01/24 09:18:00;;;;;;;2.63;2.40;;;5.10;32.60;;;;;;5031126;28;20415;-67
2021/01/24 09:20:27;;;;;;;2.90;2.80;;;5.10;33.40;;;;;;5024799;28;20521;-67
2021/01/24 09:22:53;;;;;;;3.07;2.87;;;5.00;34.10;;;;;;5020818;28;20443;-67
2021/01/24 09:25:19;;;;;;;4.87;3.60;;;5.10;34.60;;;;;;5019916;28;20417;-67
2021/01/24 09:27:45;;;;;;;3.40;3.10;;;5.20;35.70;;;;;;5021305;28;20410;-67
2021/01/24 09:30:13;;;;;;;2.90;2.70;;;5.20;36.70;;;;;;5012187;28;20178;-67
2021/01/24 09:32:39;;;;;;;3.10;2.77;;;5.20;36.70;;;;;;5012485;28;20667;-68
2021/01/24 09:35:06;;;;;;;4.40;4.10;;;5.00;38.50;;;;;;5012186;28;20416;-68
2021/01/24 09:37:32;;;;;;;3.17;2.97;;;4.90;39.60;;;;;;5011865;28;20482;-68
2021/01/24 09:39:58;;;;;;;4.30;3.90;;;4.80;40.40;;;;;;5011780;28;20437;-68
2021/01/24 09:42:23;;;;;;;3.43;3.23;;;4.80;41.40;;;;;;5012081;28;20893;-68
2021/01/24 09:44:49;;;;;;;3.43;3.13;;;4.90;41.20;;;;;;5012008;28;20431;-68
2021/01/24 09:47:15;;;;;;;4.90;3.50;;;4.60;43.40;;;;;;5011484;28;20243;-68
2021/01/24 09:49:40;;;;;;;5.23;3.87;;;4.80;42.10;;;;;;5011888;28;20177;-68
2021/01/24 09:52:06;;;;;;;3.20;3.00;;;4.80;43.20;;;;;;5011655;28;20180;-68
2021/01/24 09:54:31;;;;;;;4.47;3.93;;;4.80;43.30;;;;;;5011810;28;20189;-67
2021/01/24 09:56:57;;;;;;;3.37;3.07;;;5.00;42.30;;;;;;5011668;28;20565;-67
2021/01/24 09:59:22;;;;;;;3.20;3.00;;;5.00;42.00;;;;;;5012038;28;20189;-67
2021/01/24 10:01:48;;;;;;;4.40;3.40;;;5.00;41.30;;;;;;5011620;28;20193;-67
2021/01/24 10:04:13;;;;;;;3.20;3.00;;;5.10;42.10;;;;;;5011766;28;20200;-67
2021/01/24 10:06:39;;;;;;;3.23;2.93;;;5.20;41.00;;;;;;5011332;28;20668;-68
2021/01/24 10:09:05;;;;;;;3.60;3.30;;;5.20;41.50;;;;;;5011433;28;20731;-67
2021/01/24 10:11:31;;;;;;;3.60;3.40;;;5.20;40.20;;;;;;5011455;28;20169;-68
2021/01/24 10:13:56;;;;;;;3.00;2.80;;;5.10;40.90;;;;;;5011423;28;20471;-68
2021/01/24 10:16:22;;;;;;;4.33;2.77;;;4.90;41.40;;;;;;5011108;28;20189;-68
2021/01/24 10:18:48;;;;;;;3.70;2.97;;;5.00;41.00;;;;;;5011229;28;20177;-67
2021/01/24 10:21:14;;;;;;;3.03;2.83;;;5.00;40.40;;;;;;5011072;28;21029;-68
2021/01/24 10:23:40;;;;;;;3.03;2.83;;;4.90;40.20;;;;;;5011373;28;20216;-68
2021/01/24 10:26:06;;;;;;;3.00;2.80;;;5.00;40.50;;;;;;5011354;28;20189;-68
2021/01/24 10:28:31;;;;;;;3.20;2.97;;;5.10;40.40;;;;;;5011095;28;20574;-68
2021/01/24 10:30:57;;;;;;;3.50;2.80;;;5.10;39.60;;;;;;5010813;28;20417;-68
2021/01/24 10:33:22;;;;;;;4.07;3.00;;;5.10;39.20;;;;;;5011143;28;20187;-67
2021/01/24 10:35:48;;;;;;;3.43;3.13;;;5.20;37.80;;;;;;5011204;28;20554;-68
2021/01/24 10:38:15;;;;;;;2.70;2.50;;;5.20;37.10;;;;;;5011115;28;20177;-67
2021/01/24 10:40:40;;;;;;;2.97;2.77;;;4.80;35.60;;;;;;5011108;28;20472;-67
2021/01/24 10:43:07;;;;;;;2.60;2.40;;;4.90;38.40;;;;;;5011212;28;20467;-67
2021/01/24 10:45:34;;;;;;;4.00;2.60;;;5.00;35.10;;;;;;5026532;28;20493;-67
2021/01/24 10:48:01;;;;;;;2.00;1.90;;;5.00;33.60;;;;;;5028227;28;20902;-67
2021/01/24 10:50:27;;;;;;;2.93;2.73;;;4.90;34.60;;;;;;5010977;28;20416;-67
2021/01/24 10:52:53;;;;;;;2.60;2.40;;;5.10;33.20;;;;;;5011040;28;20408;-67
2021/01/24 10:55:19;;;;;;;3.40;2.60;;;5.10;32.80;;;;;;5010915;28;20434;-67
2021/01/24 10:57:45;;;;;;;2.40;2.20;;;5.10;32.60;;;;;;5014517;28;20420;-68
2021/01/24 11:00:11;;;;;;;2.50;2.30;;;5.10;33.00;;;;;;5029894;28;20411;-68
2021/01/24 11:02:37;;;;;;;2.47;2.30;;;5.30;31.90;;;;;;5030332;28;20184;-67
2021/01/24 11:05:03;;;;;;;2.33;2.20;;;5.30;31.20;;;;;;5030052;28;20792;-68
2021/01/24 11:07:30;;;;;;;3.17;2.13;;;5.40;30.90;;;;;;5030517;28;20786;-67
2021/01/24 11:09:55;;;;;;;2.40;2.30;;;5.50;31.20;;;;;;5030927;28;20769;-68
2021/01/24 11:12:22;;;;;;;2.03;1.93;;;5.60;30.70;;;;;;5030892;28;20567;-68
2021/01/24 11:14:48;;;;;;;2.33;2.13;;;5.90;31.70;;;;;;5030404;28;20754;-67
2021/01/24 11:17:14;;;;;;;2.40;2.20;;;5.80;30.00;;;;;;5030147;28;20432;-67
2021/01/24 11:19:39;;;;;;;2.00;1.90;;;5.70;29.30;;;;;;5030683;28;20430;-66
2021/01/24 11:22:05;;;;;;;2.27;2.07;;;5.80;30.70;;;;;;5030300;28;20650;-68
2021/01/24 11:24:31;;;;;;;1.87;1.77;;;6.00;30.30;;;;;;5030537;28;20651;-67
2021/01/24 11:26:57;;;;;;;2.00;1.90;;;5.90;29.10;;;;;;5030241;28;20576;-68
2021/01/24 11:29:24;;;;;;;2.33;2.20;;;5.90;29.40;;;;;;5030397;28;20494;-67
2021/01/24 11:31:49;;;;;;;3.03;2.17;;;5.90;29.40;;;;;;5030423;28;20417;-67
2021/01/24 11:34:15;;;;;;;4.77;2.60;;;5.90;29.20;;;;;;5030274;28;20506;-67
2021/01/24 11:36:41;;;;;;;2.43;2.23;;;5.60;29.20;;;;;;5030274;28;20200;-69
2021/01/24 11:39:06;;;;;;;2.40;2.30;;;5.40;29.60;;;;;;5028352;28;20203;-68
2021/01/24 11:41:32;;;;;;;2.90;2.10;;;5.60;29.30;;;;;;5014570;28;20210;-67
2021/01/24 11:43:57;;;;;;;2.13;2.03;;;5.60;30.40;;;;;;5031501;28;20168;-68
2021/01/24 11:46:23;;;;;;;3.13;2.90;;;5.70;30.00;;;;;;5033866;28;20272;-68
2021/01/24 11:48:49;;;;;;;2.73;2.53;;;5.50;32.20;;;;;;5033439;28;20197;-68
2021/01/24 11:51:14;;;;;;;2.50;2.30;;;5.70;29.30;;;;;;5033663;28;20172;-68
2021/01/24 11:53:40;;;;;;;3.73;2.33;;;5.60;29.20;;;;;;5033657;28;20665;-69
2021/01/24 11:56:06;;;;;;;3.40;3.00;;;5.80;30.30;;;;;;5033390;28;20667;-67
2021/01/24 11:58:32;;;;;;;2.10;1.90;;;5.90;31.10;;;;;;5033361;28;20692;-68
2021/01/24 12:00:57;;;;;;;2.23;2.13;;;6.00;29.40;;;;;;5033596;28;20463;-67
2021/01/24 12:03:23;;;;;;;2.60;2.20;;;5.60;29.20;;;;;;5033581;28;20169;-67
2021/01/24 12:05:49;;;;;;;2.33;2.23;;;5.70;31.00;;;;;;5033474;28;20271;-68
2021/01/24 12:08:14;;;;;;;2.77;2.10;;;5.60;29.10;;;;;;5033339;28;20580;-67
2021/01/24 12:10:40;;;;;;;2.37;2.20;;;5.70;30.90;;;;;;5033423;28;20184;-68
2021/01/24 12:13:05;;;;;;;2.37;2.27;;;5.50;29.10;;;;;;5033334;28;20795;-68
2021/01/24 12:15:31;;;;;;;1.93;1.83;;;5.60;29.20;;;;;;5033336;28;20223;-68
2021/01/24 12:17:56;;;;;;;2.70;2.50;;;5.50;29.50;;;;;;5033290;28;20181;-67
2021/01/24 12:20:22;;;;;;;3.37;3.17;;;5.30;29.50;;;;;;5033209;28;20200;-68
2021/01/24 12:22:48;;;;;;;3.70;2.73;;;5.40;29.40;;;;;;5033169;28;20180;-67
2021/01/24 12:25:13;;;;;;;2.80;2.60;;;5.60;31.00;;;;;;5033192;28;20168;-68
2021/01/24 12:27:39;;;;;;;5.60;2.93;;;5.60;29.80;;;;;;5032966;28;20226;-67
2021/01/24 12:30:05;;;;;;;2.47;2.27;;;5.70;29.30;;;;;;5033098;28;20651;-67
2021/01/24 12:32:31;;;;;;;3.47;2.30;;;5.60;29.20;;;;;;5033142;28;20544;-67
2021/01/24 12:34:56;;;;;;;3.47;2.47;;;5.50;29.90;;;;;;5032976;28;20435;-67
2021/01/24 12:37:22;;;;;;;2.43;2.20;;;5.40;29.90;;;;;;5032888;28;20630;-66
2021/01/24 12:39:48;;;;;;;5.40;2.90;;;5.50;29.90;;;;;;5033070;28;20682;-65
2021/01/24 12:42:13;;;;;;;3.10;2.27;;;5.70;29.90;;;;;;5032822;28;20204;-66
2021/01/24 12:44:39;;;;;;;2.30;2.07;;;5.50;29.70;;;;;;5032816;28;20639;-66
2021/01/24 12:47:04;;;;;;;2.83;2.43;;;5.40;30.00;;;;;;5032789;28;20204;-66
2021/01/24 12:49:30;;;;;;;4.47;2.70;;;5.50;30.30;;;;;;5032871;28;20177;-66
2021/01/24 12:51:55;;;;;;;3.23;2.97;;;5.70;29.60;;;;;;5033076;28;20561;-67
2021/01/24 12:54:21;;;;;;;2.67;2.50;;;5.50;29.10;;;;;;5032542;28;20188;-67
2021/01/24 12:56:46;;;;;;;2.90;2.60;;;5.30;31.40;;;;;;5032731;28;20242;-66
2021/01/24 12:59:12;;;;;;;4.70;2.83;;;5.30;29.70;;;;;;5032395;28;20264;-65